Time;durP1;ratioP1;P1;durP2;ratioP2;P2;SDS_P1;SDS_P2;PMS_P1;PMS_P2;Temp;Humidity;BMP_temperature;BMP_pressure;BME280_temperature;BME280_humidity;BME280_pressure;Samples;Min_cycle;Max_cycle;Signal;HPM_P1;HPM_P2
2021/12/13 00:02:06;;;;;;;8.87;6.67;;;;;;;;;;5058031;28;20192;-79
2021/12/13 00:04:39;;;;;;;8.87;6.57;;;;;;;;;;5074720;28;20175;-79
2021/12/13 00:07:07;;;;;;;10.57;7.10;;;;;;;;;;5074566;28;20190;-79
2021/12/13 00:09:39;;;;;;;9.63;6.37;;;;;;;;;;5074309;28;20305;-80
2021/12/13 00:12:05;;;;;;;9.97;7.03;;;;;;;;;;5074186;28;20180;-79
2021/12/13 00:14:33;;;;;;;9.10;6.17;;;;;;;;;;5074561;28;20264;-79
2021/12/13 00:17:07;;;;;;;10.07;6.80;;;;;;;;;;5074230;28;20261;-79
2021/12/13 00:19:41;;;;;;;10.50;6.90;;;;;;;;;;5075618;28;20624;-79
2021/12/13 00:22:19;;;;;;;9.67;6.53;;;;;;;;;;5073691;28;20225;-79
2021/12/13 00:24:47;;;;;;;9.10;6.50;;;;;;;;;;5074008;28;20188;-79
2021/12/13 00:27:15;;;;;;;9.70;7.37;;;;;;;;;;5074271;28;20207;-80
2021/12/13 00:29:59;;;;;;;9.70;6.80;;;;;;;;;;5074376;28;20266;-79
2021/12/13 00:32:43;;;;;;;7.93;6.10;;;;;;;;;;5073547;28;20180;-79
2021/12/13 00:35:12;;;;;;;10.50;6.67;;;;;;;;;;5073918;28;20189;-79
2021/12/13 00:37:41;;;;;;;8.93;6.40;;;;;;;;;;5057582;28;20173;-79
2021/12/13 00:40:10;;;;;;;9.63;6.70;;;;;;;;;;5074034;28;20177;-79
2021/12/13 00:42:38;;;;;;;8.53;6.27;;;;;;;;;;5073604;28;20184;-79
2021/12/13 00:47:31;;;;;;;8.87;6.43;;;;;;;;;;5074208;22;20260;-79
2021/12/13 00:50:01;;;;;;;9.67;6.73;;;;;;;;;;5040465;28;20209;-79
2021/12/13 00:52:27;;;;;;;9.30;6.70;;;;;;;;;;5056582;28;20170;-79
2021/12/13 00:54:54;;;;;;;9.20;7.27;;;;;;;;;;5056768;28;20175;-80
2021/12/13 00:57:40;;;;;;;9.33;6.57;;;;;;;;;;5040305;28;20279;-79
2021/12/13 01:00:10;;;;;;;8.90;6.30;;;;;;;;;;5040083;28;20284;-79
2021/12/13 01:02:48;;;;;;;8.57;6.60;;;;;;;;;;5056495;28;20214;-79
2021/12/13 01:05:17;;;;;;;9.83;6.60;;;;;;;;;;5056176;28;20180;-79
2021/12/13 01:07:59;;;;;;;8.10;6.27;;;;;;;;;;5056505;28;20314;-79
2021/12/13 01:10:31;;;;;;;8.50;6.10;;;;;;;;;;5055490;28;20223;-79
2021/12/13 01:12:58;;;;;;;6.60;5.63;;;;;;;;;;5056478;28;20177;-79
2021/12/13 01:15:34;;;;;;;6.50;5.40;;;;;;;;;;5039939;28;20211;-79
2021/12/13 01:18:58;;;;;;;8.17;5.77;;;;;;;;;;5040347;28;20203;-79
2021/12/13 01:21:14;;;;;;;6.80;5.27;;;;;;;;;;5065538;28;20184;-79
2021/12/13 01:23:47;;;;;;;7.00;5.40;;;;;;;;;;5056165;28;20183;-80
2021/12/13 01:26:35;;;;;;;6.57;5.57;;;;;;;;;;5056055;28;20200;-79
2021/12/13 01:29:05;;;;;;;8.00;5.50;;;;;;;;;;5056094;28;20188;-79
2021/12/13 01:31:39;;;;;;;7.00;5.67;;;;;;;;;;5055740;28;20201;-79
2021/12/13 01:34:06;;;;;;;8.87;5.50;;;;;;;;;;5055882;28;20606;-79
2021/12/13 01:36:42;;;;;;;7.90;5.70;;;;;;;;;;5039624;28;20225;-80
2021/12/13 01:39:10;;;;;;;6.83;5.30;;;;;;;;;;5040133;28;20212;-79
2021/12/13 01:41:41;;;;;;;6.47;5.13;;;;;;;;;;5073450;28;20203;-79
2021/12/13 01:44:11;;;;;;;7.10;5.40;;;;;;;;;;5039404;28;20219;-79
2021/12/13 01:46:38;;;;;;;6.93;5.63;;;;;;;;;;5055061;28;20212;-79
2021/12/13 01:49:06;;;;;;;7.87;5.20;;;;;;;;;;5054672;28;20206;-79
2021/12/13 01:51:33;;;;;;;6.83;5.30;;;;;;;;;;5038152;28;20240;-79
2021/12/13 01:54:26;;;;;;;6.37;5.43;;;;;;;;;;5055040;28;20199;-79
2021/12/13 01:57:46;;;;;;;6.00;5.00;;;;;;;;;;5050954;28;20299;-79
2021/12/13 01:59:50;;;;;;;6.90;5.00;;;;;;;;;;5061903;28;20185;-79
2021/12/13 02:02:16;;;;;;;7.67;4.93;;;;;;;;;;5054482;28;20176;-79
2021/12/13 02:04:42;;;;;;;6.10;4.97;;;;;;;;;;5072713;28;20177;-79
2021/12/13 02:07:09;;;;;;;6.63;5.10;;;;;;;;;;5038235;28;20211;-79
2021/12/13 02:09:38;;;;;;;6.30;5.23;;;;;;;;;;5054932;28;20671;-80
2021/12/13 02:12:06;;;;;;;6.33;4.70;;;;;;;;;;5054356;28;20665;-79
2021/12/13 02:14:34;;;;;;;6.17;4.73;;;;;;;;;;5054663;28;20639;-79
2021/12/13 02:17:08;;;;;;;5.53;4.33;;;;;;;;;;5054216;28;20189;-79
2021/12/13 02:19:37;;;;;;;6.37;4.90;;;;;;;;;;5054506;28;20176;-80
2021/12/13 02:22:21;;;;;;;5.70;4.50;;;;;;;;;;5070864;28;20172;-79
2021/12/13 02:24:48;;;;;;;5.43;4.43;;;;;;;;;;5072092;28;20176;-80
2021/12/13 02:27:14;;;;;;;6.33;4.57;;;;;;;;;;5054016;28;20224;-79
2021/12/13 02:29:42;;;;;;;5.53;4.67;;;;;;;;;;5037982;28;20290;-79
2021/12/13 02:32:09;;;;;;;5.50;4.73;;;;;;;;;;5054011;28;20708;-80
2021/12/13 02:34:39;;;;;;;5.00;4.50;;;;;;;;;;5054083;28;20181;-80
2021/12/13 02:37:06;;;;;;;6.10;4.77;;;;;;;;;;5037521;28;20262;-80
2021/12/13 02:39:35;;;;;;;6.27;4.87;;;;;;;;;;5054249;28;20187;-80
2021/12/13 02:42:02;;;;;;;4.97;4.23;;;;;;;;;;5054145;28;20203;-79
2021/12/13 02:44:30;;;;;;;4.40;4.00;;;;;;;;;;5071948;28;20227;-79
2021/12/13 02:46:59;;;;;;;5.17;4.20;;;;;;;;;;5017791;28;1061109;-79
2021/12/13 02:49:25;;;;;;;5.67;4.20;;;;;;;;;;5054919;28;20502;-79
2021/12/13 02:51:54;;;;;;;5.37;4.23;;;;;;;;;;5054729;28;20176;-79
2021/12/13 02:54:22;;;;;;;4.77;3.90;;;;;;;;;;5055177;28;20204;-79
2021/12/13 02:56:51;;;;;;;5.30;4.30;;;;;;;;;;5054905;28;20663;-80
2021/12/13 02:59:17;;;;;;;4.97;4.13;;;;;;;;;;5054689;28;20231;-79
2021/12/13 03:01:49;;;;;;;4.43;3.80;;;;;;;;;;5038084;28;20658;-79
2021/12/13 03:04:18;;;;;;;5.27;3.97;;;;;;;;;;5054956;28;20642;-79
2021/12/13 03:06:49;;;;;;;4.40;3.90;;;;;;;;;;5072681;28;20611;-79
2021/12/13 03:09:19;;;;;;;4.50;3.63;;;;;;;;;;5054772;28;20184;-79
2021/12/13 03:11:45;;;;;;;4.30;3.90;;;;;;;;;;5054355;28;20541;-79
2021/12/13 03:14:17;;;;;;;4.83;3.90;;;;;;;;;;5054391;28;20173;-79
2021/12/13 03:16:56;;;;;;;4.97;4.03;;;;;;;;;;5054484;28;20192;-79
2021/12/13 03:19:21;;;;;;;4.53;4.03;;;;;;;;;;5054584;28;20549;-79
2021/12/13 03:22:03;;;;;;;5.17;4.20;;;;;;;;;;5054648;28;20639;-79
2021/12/13 03:24:35;;;;;;;4.10;3.70;;;;;;;;;;5054945;28;20662;-79
2021/12/13 03:27:09;;;;;;;4.60;3.90;;;;;;;;;;5054405;28;20189;-79
2021/12/13 03:29:58;;;;;;;4.30;3.70;;;;;;;;;;5054435;28;20188;-79
2021/12/13 03:32:31;;;;;;;4.33;3.67;;;;;;;;;;5044263;28;20272;-79
2021/12/13 03:35:03;;;;;;;4.27;3.77;;;;;;;;;;5058343;28;20544;-79
2021/12/13 03:37:30;;;;;;;4.20;3.80;;;;;;;;;;5075947;28;20609;-80
2021/12/13 03:39:59;;;;;;;4.20;3.80;;;;;;;;;;5058070;28;20181;-79
2021/12/13 03:42:37;;;;;;;4.63;3.93;;;;;;;;;;5057972;28;20177;-79
2021/12/13 03:45:11;;;;;;;4.50;3.67;;;;;;;;;;5058424;28;20177;-80
2021/12/13 03:47:39;;;;;;;4.63;3.90;;;;;;;;;;5075514;28;20204;-80
2021/12/13 03:50:11;;;;;;;4.40;3.80;;;;;;;;;;5041318;28;20207;-80
2021/12/13 03:52:41;;;;;;;3.80;3.40;;;;;;;;;;5057817;28;20165;-79
2021/12/13 03:55:08;;;;;;;4.00;3.27;;;;;;;;;;5075671;28;20197;-79
2021/12/13 03:57:37;;;;;;;4.00;3.60;;;;;;;;;;5057517;28;20180;-79
2021/12/13 04:00:05;;;;;;;4.03;3.60;;;;;;;;;;5057878;28;20271;-79
2021/12/13 04:02:36;;;;;;;4.77;3.80;;;;;;;;;;5041156;28;20632;-79
2021/12/13 04:05:08;;;;;;;3.77;3.37;;;;;;;;;;5058004;28;20553;-79
2021/12/13 04:07:37;;;;;;;4.13;3.63;;;;;;;;;;5057764;28;20177;-79
2021/12/13 04:10:12;;;;;;;3.87;3.47;;;;;;;;;;5057575;28;20226;-79
2021/12/13 04:12:45;;;;;;;4.27;3.57;;;;;;;;;;5041006;28;20177;-80
2021/12/13 04:15:23;;;;;;;4.23;3.50;;;;;;;;;;5057518;28;20230;-79
2021/12/13 04:18:00;;;;;;;4.13;3.60;;;;;;;;;;5057697;28;20248;-79
2021/12/13 04:20:34;;;;;;;4.03;3.50;;;;;;;;;;5057345;28;20177;-79
2021/12/13 04:23:03;;;;;;;4.20;3.80;;;;;;;;;;5057541;28;20214;-79
2021/12/13 04:25:32;;;;;;;4.97;3.80;;;;;;;;;;5057025;28;20200;-79
2021/12/13 04:28:05;;;;;;;4.43;3.80;;;;;;;;;;5057082;28;20180;-79
2021/12/13 04:30:33;;;;;;;4.30;3.77;;;;;;;;;;5057244;28;20203;-80
2021/12/13 04:33:02;;;;;;;4.30;3.80;;;;;;;;;;5057161;28;20267;-79
2021/12/13 04:35:28;;;;;;;4.17;3.33;;;;;;;;;;5040414;28;20208;-79
2021/12/13 04:37:56;;;;;;;3.90;3.50;;;;;;;;;;5040782;28;20180;-79
2021/12/13 04:40:26;;;;;;;4.27;3.70;;;;;;;;;;5056667;28;20180;-79
2021/12/13 04:43:15;;;;;;;4.60;3.93;;;;;;;;;;5075224;28;20589;-79
2021/12/13 04:45:43;;;;;;;4.70;4.00;;;;;;;;;;5045757;28;20235;-80
2021/12/13 04:48:14;;;;;;;4.30;3.47;;;;;;;;;;5057114;28;20188;-79
2021/12/13 04:50:56;;;;;;;4.00;3.60;;;;;;;;;;5056487;28;20261;-79
2021/12/13 04:53:27;;;;;;;4.30;3.73;;;;;;;;;;5057123;28;20173;-79
2021/12/13 04:55:54;;;;;;;3.83;3.43;;;;;;;;;;5056545;28;20200;-80
2021/12/13 04:58:20;;;;;;;5.10;4.10;;;;;;;;;;5040141;28;20169;-79
2021/12/13 05:00:50;;;;;;;4.80;4.03;;;;;;;;;;5040278;28;20192;-79
2021/12/13 05:03:18;;;;;;;5.97;4.23;;;;;;;;;;5056592;28;20204;-79
2021/12/13 05:05:45;;;;;;;5.33;4.40;;;;;;;;;;5056864;28;20230;-79
2021/12/13 05:08:14;;;;;;;4.50;3.90;;;;;;;;;;5039956;28;20624;-79
2021/12/13 05:10:42;;;;;;;4.37;3.90;;;;;;;;;;5056166;28;20700;-79
2021/12/13 05:13:13;;;;;;;5.37;4.50;;;;;;;;;;5056341;28;20169;-79
2021/12/13 05:15:41;;;;;;;4.80;4.00;;;;;;;;;;5056181;28;20193;-80
2021/12/13 05:18:09;;;;;;;4.37;3.93;;;;;;;;;;5056273;28;20173;-79
2021/12/13 05:20:38;;;;;;;4.87;4.20;;;;;;;;;;5039593;28;20193;-80
2021/12/13 05:23:07;;;;;;;5.57;4.27;;;;;;;;;;5056345;28;20184;-79
2021/12/13 05:25:33;;;;;;;7.40;4.60;;;;;;;;;;5056497;28;20218;-79
2021/12/13 05:28:01;;;;;;;5.03;4.07;;;;;;;;;;5055900;28;20276;-80
2021/12/13 05:30:28;;;;;;;4.37;3.77;;;;;;;;;;5039383;28;20749;-79
2021/12/13 05:32:57;;;;;;;5.07;4.20;;;;;;;;;;5056079;28;20179;-79
2021/12/13 05:35:23;;;;;;;5.33;4.37;;;;;;;;;;5039508;28;20179;-79
2021/12/13 05:37:54;;;;;;;6.77;4.40;;;;;;;;;;5056040;28;20176;-79
2021/12/13 05:40:24;;;;;;;6.23;4.70;;;;;;;;;;5039214;28;20181;-79
2021/12/13 05:42:52;;;;;;;5.67;4.50;;;;;;;;;;5055504;28;20597;-79
2021/12/13 05:45:36;;;;;;;6.87;5.10;;;;;;;;;;5039425;28;20185;-79
2021/12/13 05:48:10;;;;;;;6.53;4.80;;;;;;;;;;5039142;28;20181;-79
2021/12/13 05:50:38;;;;;;;5.60;4.63;;;;;;;;;;5055183;28;20205;-79
2021/12/13 05:53:07;;;;;;;7.27;5.10;;;;;;;;;;5039044;28;20651;-79
2021/12/13 05:55:45;;;;;;;6.57;4.73;;;;;;;;;;5055366;28;20197;-79
2021/12/13 05:58:11;;;;;;;6.33;5.00;;;;;;;;;;5073573;28;20282;-79
2021/12/13 06:00:40;;;;;;;5.90;4.73;;;;;;;;;;5039184;28;20188;-79
2021/12/13 06:03:06;;;;;;;6.07;4.63;;;;;;;;;;5073298;28;20180;-79
2021/12/13 06:05:37;;;;;;;6.43;4.80;;;;;;;;;;5055150;28;20299;-79
2021/12/13 06:08:23;;;;;;;6.80;5.07;;;;;;;;;;5055311;28;20177;-79
2021/12/13 06:10:51;;;;;;;6.73;4.73;;;;;;;;;;5058737;28;20222;-79
2021/12/13 06:13:36;;;;;;;6.93;5.10;;;;;;;;;;5038748;28;20200;-79
2021/12/13 06:16:03;;;;;;;6.33;4.83;;;;;;;;;;5054881;28;20211;-79
2021/12/13 06:18:52;;;;;;;5.47;4.40;;;;;;;;;;5038366;28;20230;-79
2021/12/13 06:21:22;;;;;;;5.43;4.33;;;;;;;;;;5044204;28;20209;-79
2021/12/13 06:23:48;;;;;;;6.17;4.53;;;;;;;;;;5054776;28;20180;-79
2021/12/13 06:26:15;;;;;;;6.17;5.00;;;;;;;;;;5038064;28;20694;-80
2021/12/13 06:28:44;;;;;;;6.40;4.83;;;;;;;;;;5038357;28;20196;-80
2021/12/13 06:31:15;;;;;;;5.90;4.90;;;;;;;;;;5054472;28;20219;-79
2021/12/13 06:33:45;;;;;;;5.70;4.30;;;;;;;;;;5054779;28;20177;-79
2021/12/13 06:36:12;;;;;;;5.97;4.57;;;;;;;;;;5054696;28;20192;-78
2021/12/13 06:38:46;;;;;;;6.10;4.80;;;;;;;;;;5054781;28;20204;-78
2021/12/13 06:41:18;;;;;;;5.93;4.70;;;;;;;;;;5054473;28;20176;-78
2021/12/13 06:43:44;;;;;;;5.60;4.37;;;;;;;;;;5054434;28;20181;-78
2021/12/13 06:46:30;;;;;;;5.90;4.53;;;;;;;;;;5081543;22;20221;-79
2021/12/13 06:49:05;;;;;;;6.57;4.27;;;;;;;;;;5071175;28;20183;-79
2021/12/13 06:51:46;;;;;;;6.13;4.50;;;;;;;;;;5071373;28;20200;-79
2021/12/13 06:54:32;;;;;;;6.13;3.83;;;;;;;;;;5071264;28;20238;-79
2021/12/13 06:56:59;;;;;;;7.33;4.77;;;;;;;;;;5050733;28;20206;-79
2021/12/13 06:59:26;;;;;;;5.93;4.60;;;;;;;;;;5071449;28;20705;-79
2021/12/13 07:02:04;;;;;;;5.10;3.90;;;;;;;;;;5054537;28;20227;-80
2021/12/13 07:04:50;;;;;;;5.53;4.30;;;;;;;;;;5070881;28;20177;-79
2021/12/13 07:07:17;;;;;;;5.40;4.00;;;;;;;;;;5070464;28;20201;-78
2021/12/13 07:09:51;;;;;;;5.23;4.13;;;;;;;;;;5057954;28;20227;-78
2021/12/13 07:12:18;;;;;;;5.80;4.50;;;;;;;;;;5057982;28;20176;-78
2021/12/13 07:14:44;;;;;;;6.10;4.67;;;;;;;;;;5074821;28;20188;-78
2021/12/13 07:17:19;;;;;;;5.57;4.40;;;;;;;;;;5074819;28;20193;-78
2021/12/13 07:19:46;;;;;;;6.80;4.60;;;;;;;;;;5075746;28;20181;-79
2021/12/13 07:22:17;;;;;;;6.70;5.10;;;;;;;;;;5074180;28;20176;-79
2021/12/13 07:24:45;;;;;;;6.87;4.93;;;;;;;;;;5074559;28;20173;-80
2021/12/13 07:27:19;;;;;;;7.90;5.20;;;;;;;;;;5058405;28;20205;-80
2021/12/13 07:29:48;;;;;;;9.30;5.10;;;;;;;;;;5058655;28;20204;-80
2021/12/13 07:32:17;;;;;;;10.03;5.70;;;;;;;;;;5074358;28;20538;-78
2021/12/13 07:34:47;;;;;;;11.77;5.90;;;;;;;;;;5074584;28;20235;-79
2021/12/13 07:37:14;;;;;;;8.63;5.87;;;;;;;;;;5058985;28;20197;-81
2021/12/13 07:39:40;;;;;;;10.03;5.77;;;;;;;;;;5058953;28;20585;-80
2021/12/13 07:42:08;;;;;;;9.33;5.97;;;;;;;;;;5074922;28;20173;-81
2021/12/13 07:44:39;;;;;;;9.90;5.60;;;;;;;;;;5058304;28;20632;-80
2021/12/13 07:47:11;;;;;;;8.00;5.40;;;;;;;;;;5074276;28;20351;-80
2021/12/13 07:49:42;;;;;;;10.00;6.27;;;;;;;;;;5074319;28;20182;-80
2021/12/13 07:52:09;;;;;;;9.40;6.10;;;;;;;;;;5057841;28;20714;-80
2021/12/13 07:54:43;;;;;;;9.03;5.83;;;;;;;;;;5074414;28;20177;-80
2021/12/13 07:57:21;;;;;;;8.50;5.93;;;;;;;;;;5074513;28;20255;-80
2021/12/13 07:59:48;;;;;;;7.80;5.67;;;;;;;;;;5057819;28;20186;-80
2021/12/13 08:02:26;;;;;;;8.40;5.63;;;;;;;;;;5057486;28;20188;-80
2021/12/13 08:04:54;;;;;;;9.03;6.53;;;;;;;;;;5074203;28;20174;-80
2021/12/13 08:07:20;;;;;;;7.80;5.60;;;;;;;;;;5074211;28;20200;-80
2021/12/13 08:09:48;;;;;;;8.37;6.20;;;;;;;;;;5074104;28;20238;-80
2021/12/13 08:12:26;;;;;;;8.20;6.23;;;;;;;;;;5057250;28;20179;-80
2021/12/13 08:14:55;;;;;;;8.90;6.37;;;;;;;;;;5073873;28;20174;-80
2021/12/13 08:17:23;;;;;;;8.33;6.10;;;;;;;;;;5057283;28;20602;-80
2021/12/13 08:20:02;;;;;;;8.40;6.03;;;;;;;;;;5073962;28;20177;-80
2021/12/13 08:22:30;;;;;;;8.27;6.37;;;;;;;;;;5073930;28;20170;-80
2021/12/13 08:24:59;;;;;;;7.80;6.10;;;;;;;;;;5073994;28;20180;-80
2021/12/13 08:27:27;;;;;;;7.50;5.83;;;;;;;;;;5056987;28;20194;-80
2021/12/13 08:30:04;;;;;;;7.77;6.33;;;;;;;;;;5057229;28;20209;-80
2021/12/13 08:32:30;;;;;;;7.80;5.80;;;;;;;;;;5073779;28;20208;-80
2021/12/13 08:34:57;;;;;;;7.53;5.63;;;;;;;;;;5073692;28;20202;-80
2021/12/13 08:37:25;;;;;;;7.73;5.93;;;;;;;;;;5057048;28;20233;-80
2021/12/13 08:39:57;;;;;;;7.50;5.10;;;;;;;;;;5056847;28;20555;-80
2021/12/13 08:42:25;;;;;;;8.43;5.40;;;;;;;;;;5057137;28;20178;-80
2021/12/13 08:45:11;;;;;;;6.97;5.50;;;;;;;;;;5057170;28;20205;-80
2021/12/13 08:47:49;;;;;;;8.97;5.73;;;;;;;;;;5073415;28;20219;-80
2021/12/13 08:50:18;;;;;;;7.23;5.53;;;;;;;;;;5073337;28;20232;-80
2021/12/13 08:52:45;;;;;;;8.07;5.80;;;;;;;;;;5076037;28;20212;-83
2021/12/13 08:55:11;;;;;;;8.30;5.93;;;;;;;;;;5067670;28;20180;-80
2021/12/13 08:57:37;;;;;;;8.30;5.77;;;;;;;;;;5072405;28;20243;-77
2021/12/13 09:00:07;;;;;;;7.30;5.57;;;;;;;;;;5072631;28;20185;-77
2021/12/13 09:02:37;;;;;;;9.23;5.63;;;;;;;;;;5072304;28;20525;-77
2021/12/13 09:05:09;;;;;;;8.03;5.63;;;;;;;;;;5056195;28;20597;-77
2021/12/13 09:07:35;;;;;;;7.97;5.57;;;;;;;;;;5056022;28;20237;-77
2021/12/13 09:10:02;;;;;;;9.03;5.33;;;;;;;;;;5073700;28;20659;-77
2021/12/13 09:12:33;;;;;;;9.17;5.70;;;;;;;;;;5055615;28;20179;-77
2021/12/13 09:15:01;;;;;;;7.40;5.17;;;;;;;;;;5072172;28;20540;-77
2021/12/13 09:17:32;;;;;;;7.57;4.93;;;;;;;;;;5055712;28;20203;-77
2021/12/13 09:19:58;;;;;;;7.07;5.30;;;;;;;;;;5077925;28;20430;-77
2021/12/13 09:22:30;;;;;;;6.53;4.43;;;;;;;;;;5078841;28;20239;-77
2021/12/13 09:25:07;;;;;;;7.03;5.10;;;;;;;;;;5072253;28;20207;-77
2021/12/13 09:27:43;;;;;;;6.27;4.77;;;;;;;;;;5055609;28;20202;-77
2021/12/13 09:30:12;;;;;;;10.50;5.00;;;;;;;;;;5071689;28;20235;-78
2021/12/13 09:32:40;;;;;;;7.77;5.17;;;;;;;;;;5072675;28;20165;-76
2021/12/13 09:35:39;;;;;;;7.63;5.10;;;;;;;;;;5071938;28;20173;-78
2021/12/13 09:38:25;;;;;;;7.57;5.23;;;;;;;;;;5028366;28;20273;-76
2021/12/13 09:40:53;;;;;;;6.83;4.80;;;;;;;;;;5057715;28;20272;-76
2021/12/13 09:43:20;;;;;;;7.47;5.10;;;;;;;;;;5071604;28;20173;-75
2021/12/13 09:45:52;;;;;;;7.13;5.03;;;;;;;;;;5054783;28;20204;-76
2021/12/13 09:48:33;;;;;;;7.17;5.03;;;;;;;;;;5072389;28;20182;-79
2021/12/13 09:51:18;;;;;;;9.20;5.13;;;;;;;;;;5055452;28;20625;-77
2021/12/13 09:53:46;;;;;;;6.60;4.60;;;;;;;;;;5071878;28;20193;-79
2021/12/13 09:56:14;;;;;;;6.70;5.07;;;;;;;;;;5055531;28;20197;-78
2021/12/13 09:58:40;;;;;;;7.37;5.10;;;;;;;;;;5071491;28;20204;-76
2021/12/13 10:01:15;;;;;;;7.57;5.40;;;;;;;;;;5071073;28;20219;-76
2021/12/13 10:03:50;;;;;;;7.10;5.07;;;;;;;;;;5054746;28;20201;-76
2021/12/13 10:06:18;;;;;;;8.43;5.13;;;;;;;;;;5071313;28;20585;-76
2021/12/13 10:08:50;;;;;;;7.13;5.03;;;;;;;;;;5054851;28;20594;-77
2021/12/13 10:11:36;;;;;;;7.20;4.97;;;;;;;;;;5071062;28;20680;-76
2021/12/13 10:14:03;;;;;;;6.80;5.10;;;;;;;;;;5070986;28;20204;-75
2021/12/13 10:16:31;;;;;;;6.87;4.77;;;;;;;;;;5054700;28;20211;-76
2021/12/13 10:18:58;;;;;;;7.70;5.10;;;;;;;;;;5071281;28;20224;-75
2021/12/13 10:21:26;;;;;;;7.37;4.77;;;;;;;;;;5054664;28;20547;-78
2021/12/13 10:23:58;;;;;;;7.27;5.13;;;;;;;;;;5070945;28;20216;-78
2021/12/13 10:26:26;;;;;;;7.10;4.90;;;;;;;;;;5054346;28;20215;-78
2021/12/13 10:28:53;;;;;;;7.63;5.10;;;;;;;;;;5071012;28;20551;-78
2021/12/13 10:31:23;;;;;;;9.60;6.00;;;;;;;;;;5070779;28;20206;-78
2021/12/13 10:33:50;;;;;;;8.07;5.27;;;;;;;;;;5071163;28;20174;-78
2021/12/13 10:36:16;;;;;;;7.97;5.50;;;;;;;;;;5070880;28;20219;-78
2021/12/13 10:38:48;;;;;;;8.83;5.27;;;;;;;;;;5054347;28;20178;-78
2021/12/13 10:41:17;;;;;;;9.23;4.93;;;;;;;;;;5054450;28;20185;-78
2021/12/13 10:43:45;;;;;;;7.00;4.90;;;;;;;;;;5053420;28;20189;-78
2021/12/13 10:46:14;;;;;;;9.10;5.17;;;;;;;;;;5054112;28;20218;-79
2021/12/13 10:48:44;;;;;;;7.40;5.17;;;;;;;;;;5070865;28;20279;-79
2021/12/13 10:51:31;;;;;;;9.57;4.97;;;;;;;;;;5054324;28;20703;-79
2021/12/13 10:53:59;;;;;;;7.87;5.60;;;;;;;;;;5070466;28;20210;-78
2021/12/13 10:56:37;;;;;;;7.33;5.07;;;;;;;;;;5070931;28;20290;-79
2021/12/13 10:59:06;;;;;;;7.50;5.23;;;;;;;;;;5072138;28;20253;-78
2021/12/13 11:01:34;;;;;;;9.03;5.67;;;;;;;;;;5070435;28;20180;-78
2021/12/13 11:04:06;;;;;;;7.67;5.23;;;;;;;;;;5054279;28;20190;-78
2021/12/13 11:06:35;;;;;;;9.00;5.40;;;;;;;;;;5070667;28;20198;-79
2021/12/13 11:09:01;;;;;;;6.27;5.03;;;;;;;;;;5070695;28;20228;-78
2021/12/13 11:11:29;;;;;;;7.00;5.20;;;;;;;;;;5053885;28;20211;-77
2021/12/13 11:13:57;;;;;;;7.70;5.00;;;;;;;;;;5053907;28;20179;-77
2021/12/13 11:16:25;;;;;;;8.20;4.90;;;;;;;;;;5053958;28;20203;-77
2021/12/13 11:18:52;;;;;;;7.20;4.90;;;;;;;;;;5070677;28;20262;-77
2021/12/13 11:21:23;;;;;;;6.17;4.30;;;;;;;;;;5053480;28;20187;-79
2021/12/13 11:23:50;;;;;;;7.63;4.50;;;;;;;;;;5053970;28;20187;-77
2021/12/13 11:26:17;;;;;;;5.27;4.20;;;;;;;;;;5070376;28;20196;-77
2021/12/13 11:28:44;;;;;;;6.47;4.60;;;;;;;;;;5070386;28;20203;-77
2021/12/13 11:31:12;;;;;;;7.27;4.50;;;;;;;;;;5053721;28;20221;-77
2021/12/13 11:33:38;;;;;;;5.57;4.30;;;;;;;;;;5054092;28;20175;-77
2021/12/13 11:36:08;;;;;;;5.80;4.43;;;;;;;;;;5070354;28;20196;-78
2021/12/13 11:38:53;;;;;;;6.00;4.13;;;;;;;;;;5070473;28;20281;-78
2021/12/13 11:41:37;;;;;;;6.90;4.67;;;;;;;;;;5069997;28;20191;-78
2021/12/13 11:44:03;;;;;;;5.37;3.87;;;;;;;;;;5070556;28;20181;-78
2021/12/13 11:46:38;;;;;;;7.33;4.13;;;;;;;;;;5070265;28;20226;-78
2021/12/13 11:49:29;;;;;;;5.97;4.50;;;;;;;;;;5070623;28;20186;-78
2021/12/13 11:51:57;;;;;;;6.40;4.50;;;;;;;;;;5070726;28;20246;-79
2021/12/13 11:54:36;;;;;;;7.20;4.73;;;;;;;;;;5071786;28;20172;-79
2021/12/13 11:57:21;;;;;;;5.43;3.90;;;;;;;;;;5073773;28;20203;-78
2021/12/13 11:59:56;;;;;;;6.33;4.60;;;;;;;;;;5073687;28;20175;-79
2021/12/13 12:02:41;;;;;;;6.90;4.47;;;;;;;;;;5073358;28;20235;-78
2021/12/13 12:05:10;;;;;;;4.47;3.70;;;;;;;;;;5073654;28;20175;-79
2021/12/13 12:07:42;;;;;;;4.20;3.43;;;;;;;;;;5073622;28;20207;-77
2021/12/13 12:10:11;;;;;;;4.30;3.10;;;;;;;;;;5073729;28;20219;-79
2021/12/13 12:12:37;;;;;;;4.03;3.07;;;;;;;;;;5073985;28;20545;-79
2021/12/13 12:15:04;;;;;;;4.67;3.47;;;;;;;;;;5073742;28;20240;-79
2021/12/13 12:17:30;;;;;;;4.33;3.27;;;;;;;;;;5072888;28;20712;-78
2021/12/13 12:19:56;;;;;;;4.27;3.07;;;;;;;;;;5073417;28;20259;-78
2021/12/13 12:22:23;;;;;;;4.80;3.70;;;;;;;;;;5073287;28;20175;-77
2021/12/13 12:24:51;;;;;;;7.30;3.67;;;;;;;;;;5056776;28;20187;-79
2021/12/13 12:27:22;;;;;;;4.87;4.10;;;;;;;;;;5073234;28;20196;-78
2021/12/13 12:29:54;;;;;;;4.73;3.33;;;;;;;;;;5056918;28;20554;-79
2021/12/13 12:32:37;;;;;;;4.93;3.00;;;;;;;;;;5056591;28;20185;-78
2021/12/13 12:35:06;;;;;;;4.10;2.60;;;;;;;;;;5056554;28;20182;-77
2021/12/13 12:37:37;;;;;;;4.20;2.60;;;;;;;;;;5072987;28;20230;-79
2021/12/13 12:40:11;;;;;;;3.27;2.53;;;;;;;;;;5072943;28;20182;-78
2021/12/13 12:42:39;;;;;;;3.73;3.17;;;;;;;;;;5072865;28;20178;-79
2021/12/13 12:45:24;;;;;;;5.20;3.80;;;;;;;;;;5056564;28;20178;-78
2021/12/13 12:47:50;;;;;;;5.10;3.90;;;;;;;;;;5112137;22;20314;-77
2021/12/13 12:50:18;;;;;;;6.47;3.90;;;;;;;;;;5072706;28;20211;-76
2021/12/13 12:52:49;;;;;;;5.40;3.70;;;;;;;;;;5072930;28;20217;-77
2021/12/13 12:55:17;;;;;;;6.20;4.40;;;;;;;;;;5073992;28;20180;-76
2021/12/13 12:57:43;;;;;;;7.27;5.10;;;;;;;;;;5072723;28;20236;-77
2021/12/13 13:00:09;;;;;;;8.57;7.50;;;;;;;;;;5072721;28;20652;-77
2021/12/13 13:02:35;;;;;;;9.53;5.73;;;;;;;;;;5072582;28;20190;-77
2021/12/13 13:05:05;;;;;;;7.83;5.30;;;;;;;;;;5073685;28;20173;-77
2021/12/13 13:07:33;;;;;;;8.63;5.97;;;;;;;;;;5072111;28;20199;-77
2021/12/13 13:09:59;;;;;;;8.10;5.73;;;;;;;;;;5072439;28;20171;-77
2021/12/13 13:12:30;;;;;;;9.57;6.80;;;;;;;;;;5072353;28;20176;-77
2021/12/13 13:14:58;;;;;;;8.30;5.40;;;;;;;;;;5072219;28;20604;-77
2021/12/13 13:17:26;;;;;;;9.43;6.33;;;;;;;;;;5055899;28;20207;-78
2021/12/13 13:19:55;;;;;;;9.77;5.67;;;;;;;;;;5073406;28;20174;-78
2021/12/13 13:22:27;;;;;;;9.17;6.30;;;;;;;;;;5072067;28;20177;-78
2021/12/13 13:24:54;;;;;;;7.17;4.83;;;;;;;;;;5072060;28;20173;-78
2021/12/13 13:27:22;;;;;;;8.90;5.77;;;;;;;;;;5071925;28;20267;-78
2021/12/13 13:29:48;;;;;;;7.73;5.30;;;;;;;;;;5055499;28;20639;-78
2021/12/13 13:32:15;;;;;;;7.17;5.03;;;;;;;;;;5071745;28;20209;-78
2021/12/13 13:34:53;;;;;;;9.03;5.57;;;;;;;;;;5071913;28;20208;-78
2021/12/13 13:37:21;;;;;;;9.27;5.80;;;;;;;;;;5071825;28;20203;-78
2021/12/13 13:39:48;;;;;;;8.03;5.47;;;;;;;;;;5055259;28;20272;-78
2021/12/13 13:42:19;;;;;;;8.20;5.50;;;;;;;;;;5072964;28;20172;-78
2021/12/13 13:44:45;;;;;;;9.60;5.87;;;;;;;;;;5056035;28;20177;-78
2021/12/13 13:47:16;;;;;;;10.97;5.97;;;;;;;;;;5071846;28;20217;-77
2021/12/13 13:49:42;;;;;;;9.93;6.03;;;;;;;;;;5071720;28;20168;-80
2021/12/13 13:52:09;;;;;;;10.73;5.57;;;;;;;;;;5072454;28;20554;-78
2021/12/13 13:54:35;;;;;;;6.83;4.97;;;;;;;;;;5056087;28;20212;-78
2021/12/13 13:57:02;;;;;;;6.90;4.83;;;;;;;;;;5072693;28;20201;-78
2021/12/13 13:59:28;;;;;;;7.57;5.07;;;;;;;;;;5072731;28;20173;-78
2021/12/13 14:01:54;;;;;;;5.73;4.33;;;;;;;;;;5072402;28;20221;-78
2021/12/13 14:04:31;;;;;;;6.97;4.97;;;;;;;;;;5073793;28;20168;-78
2021/12/13 14:07:01;;;;;;;7.17;6.00;;;;;;;;;;5072535;28;20196;-78
2021/12/13 14:09:29;;;;;;;12.50;8.40;;;;;;;;;;5072730;28;20259;-78
2021/12/13 14:12:00;;;;;;;8.87;5.83;;;;;;;;;;5056113;28;20216;-78
2021/12/13 14:14:38;;;;;;;9.03;5.10;;;;;;;;;;5055740;28;20185;-77
2021/12/13 14:17:04;;;;;;;10.47;7.23;;;;;;;;;;5072117;28;20207;-77
2021/12/13 14:19:33;;;;;;;10.37;6.77;;;;;;;;;;5055783;28;20242;-77
2021/12/13 14:22:00;;;;;;;11.03;7.37;;;;;;;;;;5071731;28;20219;-78
2021/12/13 14:24:47;;;;;;;11.80;8.43;;;;;;;;;;5072069;28;20180;-78
2021/12/13 14:27:14;;;;;;;17.60;10.93;;;;;;;;;;5072103;28;20284;-78
2021/12/13 14:29:41;;;;;;;15.60;10.47;;;;;;;;;;5072231;28;20176;-78
2021/12/13 14:32:12;;;;;;;10.87;6.40;;;;;;;;;;5055542;28;20183;-78
2021/12/13 14:34:38;;;;;;;11.20;7.00;;;;;;;;;;5055905;28;20280;-77
2021/12/13 14:37:05;;;;;;;10.77;6.57;;;;;;;;;;5072633;28;20212;-78
2021/12/13 14:39:32;;;;;;;10.20;6.27;;;;;;;;;;5074782;28;20187;-78
2021/12/13 14:42:05;;;;;;;9.87;6.40;;;;;;;;;;5072470;28;20236;-78
2021/12/13 14:44:45;;;;;;;10.93;6.90;;;;;;;;;;5072868;28;20172;-78
2021/12/13 14:47:16;;;;;;;8.80;6.07;;;;;;;;;;5072764;28;20238;-78
2021/12/13 14:49:50;;;;;;;10.27;6.47;;;;;;;;;;5073120;28;20180;-78
2021/12/13 14:52:18;;;;;;;11.80;7.17;;;;;;;;;;5054993;28;20188;-77
2021/12/13 14:54:46;;;;;;;8.43;5.40;;;;;;;;;;5071898;28;20187;-77
2021/12/13 14:57:14;;;;;;;10.73;6.77;;;;;;;;;;5072306;28;20733;-78
2021/12/13 14:59:45;;;;;;;9.27;6.17;;;;;;;;;;5072573;28;20526;-78
2021/12/13 15:02:13;;;;;;;13.03;7.17;;;;;;;;;;5071609;28;20219;-78
2021/12/13 15:04:40;;;;;;;9.83;7.53;;;;;;;;;;5071786;28;20176;-78
2021/12/13 15:07:12;;;;;;;9.60;7.90;;;;;;;;;;5072780;28;20206;-78